Airfield :
LOGIN :

Register | Disclaimer

   EN    FR    IT 

 










Legend :    VFR   Marginal VFR   IFR   Intensive IFR   Very Intensive IFR
Visi :
Ceiling :
>= 8 km
>= 3000ft
5 to 8 km
1000 to 3000 ft
1500m to 5 km
500 to 1000 ft
800 to 1500m
200 to 500 ft
< 800m
< 200 ft
Symbols :   Thunderstorms  Fog  Heavy snow  Heavy precipitations  Wind > 20 kt
SIGMETs :     Misc.  Thunderstorms  Icing  Turbulence  Mountain Waves  Volcanic Ashes







- Airport Elevation : 13 ft
- IATA code : OST


EBOS - Oostend bruges Int.

CURRENT METAR :
  • 240820Z 24011KT 5000 -RADZ BR SCT008 BKN010 16/14 Q1016 TEMPO 24016G26KT 4500 -RADZ BKN008

EXPIRED METARs :
  • 240750Z 24014KT 9999 SCT010 BKN012 17/14 Q1016 TEMPO 24016G26KT 4500 -RADZ BKN009
  • 240720Z 24014KT 9999 BKN010 16/14 Q1016 TEMPO 24016G26KT 4500 -RADZ BKN009
  • 240650Z 24015KT 9999 BKN010 16/14 Q1016 TEMPO 24016G26KT 4500 -RADZ BKN009
  • 240620Z 25017KT 9999 BKN010 17/14 Q1015 TEMPO BKN009
  • 240550Z 25012KT 9999 BKN012 16/13 Q1015 NOSIG

TAF TAF EBOS
Valid from the 24 at 06:00 until the 25 at 12:00 UTC


240510Z 2406/2512 24014KT 9999 FEW007 BKN014
TEMPO 2410/2420 4000 RADZ BKN007
TEMPO 2420/2504 SCT004 BKN007
PROB30
TEMPO 2420/2503 BKN004
BECMG 2505/2507 FEW040
No reported NOTAMs for that airfield.



MET'MAP, your aeronautical weather chart ! - Copyright ORBIFLY December 2007 - Disclaimer

ORBIFLY MET'MAP TEAM :

Programming & Development : Alexandra Zaïnal
Concept & Development : Baudouin d'Aumeries
Co-Development & Prog : Marc-Olivier Méhu
Technical & hardware support : Manuel Goepfert

Contact : metmap@orbifly.com




SOURCES & CREDITS :

   NOAA